Startpagina
METAR-TAF:

METAR-TAF

Vliegvelden :

Internationale luchthaven Xi'an Xianyang

Xi'an, China

breedte: 34-26N, lengte: 108-45E, hoogte: 479 m

Actueel weer

Dit bericht is 29 minuten geleden gemaakt, om 05:00 UTC
Wind 10 kt uit het zuidzuidwesten, variërend tussen het zuidzuidoosten en het westzuidwesten
Temperatuur 20°C
Vochtigheid 49%
Druk 1024 hPa
Zicht 10 km of meer
geen wolken onder 1500 m en geen cumulonimbus

METAR: ZLXY 220500Z 20005MPS 160V240 CAVOK 20/09 Q1024 NOSIG

Tijdstip: 13:29 (05:29 UTC)

Verwachting

Dit bericht is 10 uur en het 2 minuten geleden gemaakt, om 19:27 UTC
Verwachting geldig van 22 om 00 UTC tot 22 om 24 UTC
Wind 6 kt uit het westzuidwesten
Zicht: 2000 m
nevel
Wijzigt naar
van 22 om 02 UTC tot 22 om 03 UTC
Zicht: 3000 m
Tijdelijke
van 22 om 00 UTC tot 22 om 01 UTC
Zicht: 0800 m
mist

TAF: ZLXY 211927Z 2200/2224 24003MPS 2000 BR NSC TX21/2207Z TN08/2222Z BECMG 2202/2203 3000 TEMPO 2200/2201 0800 FG

Waarnemingen en weersverwachtingen van meer dan 4000 vliegvelden (METAR en TAF).

De beschikbare stations zijn de gele en rode punten op de kaart.

Ga met uw muis naar het station om de naam te zien.

Klik dan om waarnemingen en weersverwachtingen te zien.

kaart wijzigen: klik op de groene knoppen met een zwart kruis om in te zoomen, op de groene knop met een streepje om uit te zoomen of op de groene pijlen voor aangrenzende kaarten.


METAR-TAF: